createdAt,value
2023-02-11T00:01:11.790Z,-13.27
2023-02-11T00:03:38.966Z,-13.22
2023-02-11T00:06:11.247Z,-13.25
2023-02-11T00:08:40.815Z,-13.28
2023-02-11T00:11:07.837Z,-13.31
2023-02-11T00:13:36.887Z,-13.30
2023-02-11T00:16:10.835Z,-13.37
2023-02-11T00:18:37.742Z,-13.38
2023-02-11T00:21:08.533Z,-13.40
2023-02-11T00:23:35.526Z,-13.41
2023-02-11T00:26:02.298Z,-13.42
2023-02-11T00:28:29.043Z,-13.53
2023-02-11T00:30:59.288Z,-13.48
2023-02-11T00:33:26.021Z,-13.48
2023-02-11T00:35:52.913Z,-13.56
2023-02-11T00:38:20.371Z,-13.58
2023-02-11T00:40:47.027Z,-13.62
2023-02-11T00:43:13.682Z,-13.59
2023-02-11T00:45:40.433Z,-13.62
2023-02-11T00:48:07.086Z,-13.65
2023-02-11T00:50:35.318Z,-13.65
2023-02-11T00:53:02.119Z,-13.68
2023-02-11T00:55:30.928Z,-13.69
2023-02-11T00:57:58.948Z,-13.73
2023-02-11T01:00:26.341Z,-13.75
2023-02-11T01:02:53.462Z,-13.77
2023-02-11T01:05:20.881Z,-13.81
2023-02-11T01:07:47.846Z,-13.92
2023-02-11T01:10:14.828Z,-13.95
2023-02-11T01:12:41.545Z,-13.86
2023-02-11T01:15:10.046Z,-13.85
2023-02-11T01:17:36.717Z,-13.76
2023-02-11T01:20:09.295Z,-13.74
2023-02-11T01:22:39.540Z,-13.83
2023-02-11T01:25:07.703Z,-13.80
2023-02-11T01:27:34.572Z,-13.89
2023-02-11T01:30:01.426Z,-14.02
2023-02-11T01:32:28.173Z,-13.94
2023-02-11T01:34:54.906Z,-13.93
2023-02-11T01:37:21.593Z,-13.92
2023-02-11T01:39:48.275Z,-13.96
2023-02-11T01:42:23.639Z,-13.99
2023-02-11T01:44:52.258Z,-14.03
2023-02-11T01:47:19.519Z,-14.01
2023-02-11T01:49:49.514Z,-14.00
2023-02-11T01:52:29.008Z,-14.04
2023-02-11T01:55:30.375Z,-14.12
2023-02-11T01:58:05.095Z,-14.13
2023-02-11T02:00:36.875Z,-14.22
2023-02-11T02:03:22.664Z,-14.18
2023-02-11T02:06:07.615Z,-14.15
2023-02-11T02:08:55.955Z,-14.15
2023-02-11T02:11:25.677Z,-14.13
2023-02-11T02:13:52.586Z,-14.20
2023-02-11T02:16:22.079Z,-14.17
2023-02-11T02:19:08.064Z,-14.27
2023-02-11T02:21:56.648Z,-14.27
2023-02-11T02:24:56.685Z,-14.30
2023-02-11T02:27:38.641Z,-14.31
2023-02-11T02:30:17.584Z,-14.40
2023-02-11T02:33:22.409Z,-14.48
2023-02-11T02:36:08.867Z,-14.46
2023-02-11T02:38:46.118Z,-14.56
2023-02-11T02:41:19.268Z,-14.64
2023-02-11T02:43:49.707Z,-14.67
2023-02-11T02:46:25.461Z,-14.57
2023-02-11T02:48:53.919Z,-14.56
2023-02-11T02:51:26.266Z,-14.61
2023-02-11T02:54:30.844Z,-14.69
2023-02-11T02:57:38.391Z,-14.73
2023-02-11T03:00:25.357Z,-14.77
2023-02-11T03:03:20.430Z,-14.73
2023-02-11T03:06:11.570Z,-14.74
2023-02-11T03:08:50.890Z,-14.77
2023-02-11T03:11:22.230Z,-14.71
2023-02-11T03:13:51.060Z,-14.81
2023-02-11T03:16:23.329Z,-14.81
2023-02-11T03:18:57.271Z,-14.84
2023-02-11T03:21:25.539Z,-14.86
2023-02-11T03:24:00.541Z,-14.91
2023-02-11T03:26:37.626Z,-14.89
2023-02-11T03:29:17.060Z,-14.88
2023-02-11T03:32:01.512Z,-14.89
2023-02-11T03:34:35.557Z,-14.87
2023-02-11T03:37:09.765Z,-14.79
2023-02-11T03:39:38.064Z,-14.82
2023-02-11T03:42:07.581Z,-14.87
2023-02-11T03:44:42.174Z,-14.82
2023-02-11T03:47:12.571Z,-14.83
2023-02-11T03:49:42.997Z,-14.82
2023-02-11T03:52:12.431Z,-14.81
2023-02-11T03:54:42.657Z,-14.78
2023-02-11T03:57:09.572Z,-14.78
2023-02-11T03:59:57.144Z,-14.79
2023-02-11T04:02:27.814Z,-14.85
2023-02-11T04:04:54.651Z,-15.09
2023-02-11T04:07:21.349Z,-15.27
2023-02-11T04:09:47.996Z,-15.43
2023-02-11T04:12:14.652Z,-15.49
2023-02-11T04:14:41.298Z,-15.51
2023-02-11T04:17:07.996Z,-15.50
2023-02-11T04:19:34.921Z,-15.48
2023-02-11T04:22:04.477Z,-15.38
2023-02-11T04:24:31.334Z,-15.36
2023-02-11T04:26:58.233Z,-15.23
2023-02-11T04:29:24.886Z,-15.20
2023-02-11T04:31:51.751Z,-15.24
2023-02-11T04:34:18.429Z,-15.26
2023-02-11T04:36:45.076Z,-15.25
2023-02-11T04:39:11.853Z,-15.26
2023-02-11T04:41:38.558Z,-15.31
2023-02-11T04:44:05.673Z,-15.23
2023-02-11T04:46:32.414Z,-15.29
2023-02-11T04:48:59.110Z,-15.30
2023-02-11T04:51:25.966Z,-15.27
2023-02-11T04:53:52.601Z,-15.30
2023-02-11T04:56:19.365Z,-15.35
2023-02-11T04:58:46.032Z,-15.40
2023-02-11T05:01:15.273Z,-15.40
2023-02-11T05:03:42.084Z,-15.40
2023-02-11T05:06:10.494Z,-15.46
2023-02-11T05:08:37.167Z,-15.56
2023-02-11T05:11:04.284Z,-15.56
2023-02-11T05:13:33.600Z,-15.54
2023-02-11T05:16:00.228Z,-15.45
2023-02-11T05:18:26.839Z,-15.40
2023-02-11T05:20:56.422Z,-15.42
2023-02-11T05:23:23.184Z,-15.39
2023-02-11T05:25:50.093Z,-15.46
2023-02-11T05:28:17.006Z,-15.51
2023-02-11T05:30:43.736Z,-15.45
2023-02-11T05:33:10.413Z,-15.38
2023-02-11T05:35:37.063Z,-15.35
2023-02-11T05:38:03.715Z,-15.35
2023-02-11T05:40:30.324Z,-15.34
2023-02-11T05:42:57.091Z,-15.22
2023-02-11T05:45:26.441Z,-15.13
2023-02-11T05:47:53.145Z,-15.11
2023-02-11T05:50:20.372Z,-15.09
2023-02-11T05:52:47.069Z,-15.00
2023-02-11T05:55:13.701Z,-14.91
2023-02-11T05:57:40.376Z,-14.95
2023-02-11T06:00:08.349Z,-14.95
2023-02-11T06:02:35.110Z,-14.98
2023-02-11T06:05:01.821Z,-14.94
2023-02-11T06:07:28.443Z,-14.87
2023-02-11T06:09:54.971Z,-14.86
2023-02-11T06:12:22.765Z,-14.83
2023-02-11T06:14:49.348Z,-14.90
2023-02-11T06:17:15.998Z,-14.94
2023-02-11T06:19:42.844Z,-14.93
2023-02-11T06:22:09.754Z,-14.90
2023-02-11T06:24:58.498Z,-14.88
2023-02-11T06:27:24.435Z,-14.76
2023-02-11T06:29:52.519Z,-14.46
2023-02-11T06:32:39.306Z,-14.47
2023-02-11T06:35:11.779Z,-14.48
2023-02-11T06:37:38.986Z,-14.27
2023-02-11T06:40:06.035Z,-14.24
2023-02-11T06:42:32.735Z,-14.15
2023-02-11T06:44:59.423Z,-14.22
2023-02-11T06:47:26.103Z,-14.23
2023-02-11T06:49:52.725Z,-14.22
2023-02-11T06:52:19.372Z,-14.09
2023-02-11T06:54:46.194Z,-14.04
2023-02-11T06:57:12.898Z,-14.10
2023-02-11T06:59:39.570Z,-14.08
2023-02-11T07:02:06.243Z,-14.23
2023-02-11T07:04:32.957Z,-14.14
2023-02-11T07:06:59.674Z,-13.99
2023-02-11T07:09:29.049Z,-13.80
2023-02-11T07:11:55.832Z,-13.78
2023-02-11T07:14:22.468Z,-13.93
2023-02-11T07:16:49.161Z,-14.01
2023-02-11T07:19:17.835Z,-13.88
2023-02-11T07:21:44.477Z,-13.89
2023-02-11T07:24:11.567Z,-13.66
2023-02-11T07:26:38.514Z,-13.71
2023-02-11T07:29:05.364Z,-13.60
2023-02-11T07:31:33.178Z,-13.76
2023-02-11T07:34:02.570Z,-13.71
2023-02-11T07:36:31.872Z,-13.70
2023-02-11T07:38:59.106Z,-13.74
2023-02-11T07:41:27.089Z,-13.57
2023-02-11T07:43:54.462Z,-13.61
2023-02-11T07:46:24.216Z,-13.57
2023-02-11T07:48:51.381Z,-13.42
2023-02-11T07:51:27.100Z,-13.35
2023-02-11T07:53:58.076Z,-13.35
2023-02-11T07:56:25.031Z,-13.18
2023-02-11T07:58:52.257Z,-13.11
2023-02-11T08:01:24.946Z,-13.21
2023-02-11T08:03:52.478Z,-13.09
2023-02-11T08:06:21.772Z,-12.97
2023-02-11T08:08:49.470Z,-12.78
2023-02-11T08:11:22.368Z,-12.77
2023-02-11T08:13:49.497Z,-12.69
2023-02-11T08:16:31.695Z,-12.62
2023-02-11T08:19:01.900Z,-12.38
2023-02-11T08:21:29.188Z,-12.18
2023-02-11T08:23:56.589Z,-12.27
2023-02-11T08:26:29.160Z,-11.94
2023-02-11T08:28:57.136Z,-11.85
2023-02-11T08:31:34.295Z,-11.56
2023-02-11T08:34:02.504Z,-11.51
2023-02-11T08:36:31.547Z,-11.42
2023-02-11T08:39:15.906Z,-11.33
2023-02-11T08:41:46.402Z,-11.30
2023-02-11T08:44:13.466Z,-11.12
2023-02-11T08:46:40.128Z,-10.89
2023-02-11T08:49:06.933Z,-10.78
2023-02-11T08:51:33.705Z,-10.67
2023-02-11T08:54:01.137Z,-10.33
2023-02-11T08:56:28.391Z,-10.14
2023-02-11T08:58:55.390Z,-10.06
2023-02-11T09:01:28.765Z,-10.13
2023-02-11T09:03:56.886Z,-10.10
2023-02-11T09:06:25.092Z,-9.94
2023-02-11T09:08:55.241Z,-9.80
2023-02-11T09:11:27.494Z,-9.90
2023-02-11T09:13:54.700Z,-9.79
2023-02-11T09:16:30.255Z,-9.68
2023-02-11T09:18:59.024Z,-9.47
2023-02-11T09:21:26.283Z,-9.56
2023-02-11T09:23:53.235Z,-9.62
2023-02-11T09:26:23.019Z,-9.65
2023-02-11T09:28:51.328Z,-9.47
2023-02-11T09:31:20.607Z,-9.25
2023-02-11T09:33:49.271Z,-9.22
2023-02-11T09:36:21.012Z,-9.22
2023-02-11T09:38:48.716Z,-9.03
2023-02-11T09:41:24.624Z,-8.75
2023-02-11T09:43:54.754Z,-8.71
2023-02-11T09:46:23.526Z,-8.60
2023-02-11T09:48:56.104Z,-8.40
2023-02-11T09:51:31.812Z,-8.26
2023-02-11T09:54:05.639Z,-8.04
2023-02-11T09:56:32.563Z,-7.96
2023-02-11T09:58:59.677Z,-7.92
2023-02-11T10:01:47.701Z,-7.80
2023-02-11T10:04:33.611Z,-7.64
2023-02-11T10:07:18.469Z,-7.22
2023-02-11T10:09:53.315Z,-6.95
2023-02-11T10:12:45.816Z,-6.75
2023-02-11T10:15:15.536Z,-6.49
2023-02-11T10:18:10.172Z,-6.28
2023-02-11T10:20:48.140Z,-6.26
2023-02-11T10:23:30.305Z,-6.18
2023-02-11T10:25:59.061Z,-6.24
2023-02-11T10:28:33.389Z,-5.98
2023-02-11T10:31:03.175Z,-5.78
2023-02-11T10:34:15.172Z,-5.93
2023-02-11T10:36:44.330Z,-5.88
2023-02-11T10:39:16.625Z,-5.79
2023-02-11T10:41:50.758Z,-5.64
2023-02-11T10:44:23.321Z,-5.34
2023-02-11T10:46:51.268Z,-5.30
2023-02-11T10:49:39.738Z,-5.30
2023-02-11T10:52:22.541Z,-4.96
2023-02-11T10:54:56.389Z,-4.91
2023-02-11T10:57:26.296Z,-4.58
2023-02-11T10:59:58.413Z,-4.57
2023-02-11T11:02:34.730Z,-4.72
2023-02-11T11:05:07.328Z,-4.70
2023-02-11T11:07:34.874Z,-4.33
2023-02-11T11:10:31.886Z,-4.17
2023-02-11T11:12:58.633Z,-4.09
2023-02-11T11:15:30.107Z,-3.91
2023-02-11T11:18:23.007Z,-3.94
2023-02-11T11:21:21.721Z,-4.08
2023-02-11T11:23:52.801Z,-4.30
2023-02-11T11:26:19.982Z,-4.46
2023-02-11T11:28:49.313Z,-4.25
2023-02-11T11:31:24.658Z,-4.14
2023-02-11T11:33:55.127Z,-4.04
2023-02-11T11:36:30.583Z,-3.99
2023-02-11T11:39:01.532Z,-3.82
2023-02-11T11:41:36.084Z,-3.79
2023-02-11T11:44:02.670Z,-3.73
2023-02-11T11:46:33.151Z,-3.64
2023-02-11T11:49:31.127Z,-3.53
2023-02-11T11:52:14.122Z,-3.41
2023-02-11T11:54:47.844Z,-3.69
2023-02-11T11:57:22.304Z,-3.71
2023-02-11T11:59:48.897Z,-3.88
2023-02-11T12:02:35.281Z,-3.93
2023-02-11T12:05:17.874Z,-3.76
2023-02-11T12:08:25.822Z,-3.75
2023-02-11T12:10:58.407Z,-3.64
2023-02-11T12:13:48.904Z,-3.39
2023-02-11T12:16:45.935Z,-3.35
2023-02-11T12:19:46.540Z,-3.43
2023-02-11T12:22:26.873Z,-3.35
2023-02-11T12:25:38.693Z,-3.20
2023-02-11T12:28:29.870Z,-3.11
2023-02-11T12:31:03.185Z,-2.93
2023-02-11T12:33:51.599Z,-2.77
2023-02-11T12:36:28.215Z,-2.70
2023-02-11T12:39:15.344Z,-2.57
2023-02-11T12:42:00.496Z,-2.60
2023-02-11T12:44:31.376Z,-2.45
2023-02-11T12:47:33.231Z,-2.29
2023-02-11T12:50:13.752Z,-2.25
2023-02-11T12:53:10.390Z,-2.32
2023-02-11T12:55:47.079Z,-2.27
2023-02-11T12:58:25.367Z,-2.42
2023-02-11T13:01:06.323Z,-2.25
2023-02-11T13:03:46.424Z,-2.23
2023-02-11T13:06:18.741Z,-2.21
2023-02-11T13:08:54.314Z,-2.28
2023-02-11T13:11:24.780Z,-2.07
2023-02-11T13:13:51.385Z,-2.16
2023-02-11T13:16:42.363Z,-2.07
2023-02-11T13:19:47.399Z,-2.12
2023-02-11T13:22:17.120Z,-2.02
2023-02-11T13:24:48.093Z,-1.96
2023-02-11T13:27:33.004Z,-2.00
2023-02-11T13:30:23.392Z,-1.93
2023-02-11T13:32:55.988Z,-1.96
2023-02-11T13:35:39.264Z,-1.89
2023-02-11T13:38:19.376Z,-1.92
2023-02-11T13:41:06.281Z,-1.84
2023-02-11T13:43:36.423Z,-1.82
2023-02-11T13:46:06.361Z,-1.78
2023-02-11T13:48:37.326Z,-1.75
2023-02-11T13:51:13.715Z,-1.86
2023-02-11T13:53:49.319Z,-1.87
2023-02-11T13:56:44.214Z,-1.92
2023-02-11T13:59:26.744Z,-1.88
2023-02-11T14:02:11.940Z,-1.91
2023-02-11T14:05:23.049Z,-2.02
2023-02-11T14:08:29.379Z,-2.15
2023-02-11T14:10:59.009Z,-2.04
2023-02-11T14:13:32.893Z,-2.09
2023-02-11T14:16:37.947Z,-2.04
2023-02-11T14:19:06.462Z,-1.95
2023-02-11T14:21:38.939Z,-1.91
2023-02-11T14:24:07.132Z,-1.86
2023-02-11T14:27:01.693Z,-1.96
2023-02-11T14:29:46.026Z,-2.03
2023-02-11T14:32:38.102Z,-2.08
2023-02-11T14:35:29.126Z,-2.12
2023-02-11T14:38:31.676Z,-2.20
2023-02-11T14:41:16.388Z,-2.29
2023-02-11T14:43:52.913Z,-2.32
2023-02-11T14:46:21.187Z,-2.45
2023-02-11T14:48:50.595Z,-2.52
2023-02-11T14:51:26.643Z,-2.57
2023-02-11T14:53:59.321Z,-2.65
2023-02-11T14:56:34.487Z,-2.71
2023-02-11T14:59:02.767Z,-2.77
2023-02-11T15:01:41.536Z,-2.87
2023-02-11T15:04:22.676Z,-2.95
2023-02-11T15:06:49.818Z,-3.08
2023-02-11T15:09:20.719Z,-3.12
2023-02-11T15:11:49.816Z,-3.19
2023-02-11T15:14:29.828Z,-3.18
2023-02-11T15:17:08.912Z,-3.35
2023-02-11T15:19:41.320Z,-3.43
2023-02-11T15:22:22.151Z,-3.48
2023-02-11T15:25:19.964Z,-3.56
2023-02-11T15:27:48.179Z,-3.55
2023-02-11T15:30:24.390Z,-3.62
2023-02-11T15:32:58.037Z,-3.58
2023-02-11T15:35:37.216Z,-3.58
2023-02-11T15:38:05.105Z,-3.63
2023-02-11T15:40:37.145Z,-3.61
2023-02-11T15:43:07.112Z,-3.63
2023-02-11T15:45:38.891Z,-3.69
2023-02-11T15:48:18.685Z,-3.67
2023-02-11T15:50:52.178Z,-3.72
2023-02-11T15:53:27.712Z,-3.71
2023-02-11T15:56:04.086Z,-3.74
2023-02-11T15:58:37.442Z,-3.64
2023-02-11T16:01:04.667Z,-3.67
2023-02-11T16:03:33.093Z,-3.66
2023-02-11T16:06:39.038Z,-3.63
2023-02-11T16:09:08.502Z,-3.68
2023-02-11T16:11:56.741Z,-3.69
2023-02-11T16:14:42.249Z,-3.64
2023-02-11T16:17:12.257Z,-3.60
2023-02-11T16:19:48.533Z,-3.65
2023-02-11T16:22:22.977Z,-3.62
2023-02-11T16:24:52.571Z,-3.63
2023-02-11T16:27:38.103Z,-3.62
2023-02-11T16:30:05.760Z,-3.63
2023-02-11T16:32:32.441Z,-3.62
2023-02-11T16:35:00.934Z,-3.64
2023-02-11T16:37:28.316Z,-3.60
2023-02-11T16:39:56.276Z,-3.56
2023-02-11T16:42:23.721Z,-3.61
2023-02-11T16:44:50.328Z,-3.65
2023-02-11T16:47:23.010Z,-3.64
2023-02-11T16:49:49.962Z,-3.58
2023-02-11T16:52:18.375Z,-3.57
2023-02-11T16:54:45.060Z,-3.62
2023-02-11T16:57:16.807Z,-3.58
2023-02-11T16:59:44.333Z,-3.57
2023-02-11T17:02:28.067Z,-3.60
2023-02-11T17:04:56.377Z,-3.59
2023-02-11T17:07:22.985Z,-3.55
2023-02-11T17:09:49.779Z,-3.56
2023-02-11T17:12:16.398Z,-3.58
2023-02-11T17:14:42.968Z,-3.62
2023-02-11T17:17:10.873Z,-3.58
2023-02-11T17:19:38.507Z,-3.59
2023-02-11T17:22:05.211Z,-3.58
2023-02-11T17:24:32.064Z,-3.60
2023-02-11T17:26:58.803Z,-3.57
2023-02-11T17:29:26.273Z,-3.59
2023-02-11T17:31:53.744Z,-3.60
2023-02-11T17:34:22.457Z,-3.61
2023-02-11T17:36:49.465Z,-3.59
2023-02-11T17:39:16.778Z,-3.62
2023-02-11T17:41:43.605Z,-3.59
2023-02-11T17:44:12.596Z,-3.58
2023-02-11T17:46:39.387Z,-3.57
2023-02-11T17:49:06.155Z,-3.55
2023-02-11T17:51:37.975Z,-3.56
2023-02-11T17:54:17.364Z,-3.61
2023-02-11T17:56:45.188Z,-3.63
2023-02-11T17:59:13.316Z,-3.69
2023-02-11T18:01:42.264Z,-3.67
2023-02-11T18:04:13.597Z,-3.74
2023-02-11T18:06:40.674Z,-3.76
2023-02-11T18:09:07.350Z,-3.70
2023-02-11T18:11:36.291Z,-3.70
2023-02-11T18:14:04.622Z,-3.65
2023-02-11T18:16:31.609Z,-3.66
2023-02-11T18:18:58.634Z,-3.67
2023-02-11T18:21:25.691Z,-3.69
2023-02-11T18:23:52.653Z,-3.70
2023-02-11T18:26:20.811Z,-3.74
2023-02-11T18:28:47.698Z,-3.74
2023-02-11T18:31:14.730Z,-3.75
2023-02-11T18:33:42.965Z,-3.77
2023-02-11T18:36:12.712Z,-3.76
2023-02-11T18:38:39.931Z,-3.77
2023-02-11T18:41:10.192Z,-3.83
2023-02-11T18:43:37.000Z,-3.77
2023-02-11T18:46:09.117Z,-3.80
2023-02-11T18:48:36.181Z,-3.74
2023-02-11T18:51:02.960Z,-3.72
2023-02-11T18:53:29.724Z,-3.74
2023-02-11T18:55:56.330Z,-3.74
2023-02-11T18:58:23.070Z,-3.75
2023-02-11T19:00:50.587Z,-3.77
2023-02-11T19:03:17.506Z,-3.78
2023-02-11T19:05:46.406Z,-3.79
2023-02-11T19:08:13.978Z,-3.82
2023-02-11T19:10:47.402Z,-3.82
2023-02-11T19:13:14.390Z,-3.77
2023-02-11T19:15:45.707Z,-3.76
2023-02-11T19:18:16.490Z,-3.85
2023-02-11T19:20:44.311Z,-3.88
2023-02-11T19:23:11.424Z,-3.79
2023-02-11T19:25:44.469Z,-3.85
2023-02-11T19:28:11.264Z,-3.91
2023-02-11T19:30:38.046Z,-3.95
2023-02-11T19:33:04.947Z,-4.00
2023-02-11T19:35:35.589Z,-4.04
2023-02-11T19:38:04.584Z,-4.03
2023-02-11T19:40:32.384Z,-3.94
2023-02-11T19:42:59.236Z,-4.02
2023-02-11T19:45:27.068Z,-4.13
2023-02-11T19:47:56.939Z,-4.12
2023-02-11T19:50:24.414Z,-4.06
2023-02-11T19:52:51.260Z,-4.13
2023-02-11T19:55:18.118Z,-4.23
2023-02-11T19:57:44.945Z,-4.27
2023-02-11T20:00:12.147Z,-4.24
2023-02-11T20:02:40.141Z,-4.20
2023-02-11T20:05:07.311Z,-4.16
2023-02-11T20:07:33.965Z,-4.17
2023-02-11T20:10:00.823Z,-4.13
2023-02-11T20:12:27.536Z,-4.10
2023-02-11T20:14:54.096Z,-4.09
2023-02-11T20:17:20.733Z,-4.14
2023-02-11T20:19:47.361Z,-4.20
2023-02-11T20:22:14.026Z,-4.21
2023-02-11T20:24:40.801Z,-4.20
2023-02-11T20:27:11.606Z,-4.18
2023-02-11T20:29:39.124Z,-4.21
2023-02-11T20:32:06.633Z,-4.22
2023-02-11T20:34:33.891Z,-4.18
2023-02-11T20:37:00.665Z,-4.18
2023-02-11T20:39:27.391Z,-4.15
2023-02-11T20:41:54.876Z,-4.19
2023-02-11T20:44:22.399Z,-4.21
2023-02-11T20:46:51.157Z,-4.19
2023-02-11T20:49:21.734Z,-4.21
2023-02-11T20:51:49.283Z,-4.18
2023-02-11T20:54:18.908Z,-4.13
2023-02-11T20:56:51.230Z,-4.21
2023-02-11T20:59:19.012Z,-4.21
2023-02-11T21:01:53.420Z,-4.21
2023-02-11T21:04:23.983Z,-4.22
2023-02-11T21:06:53.824Z,-4.21
2023-02-11T21:09:23.713Z,-4.22
2023-02-11T21:11:51.785Z,-4.23
2023-02-11T21:14:19.911Z,-4.20
2023-02-11T21:16:48.232Z,-4.23
2023-02-11T21:19:15.960Z,-4.24
2023-02-11T21:21:42.891Z,-4.27
2023-02-11T21:24:10.459Z,-4.26
2023-02-11T21:26:37.562Z,-4.28
2023-02-11T21:29:05.549Z,-4.30
2023-02-11T21:31:34.084Z,-4.28
2023-02-11T21:34:01.320Z,-4.29
2023-02-11T21:36:29.592Z,-4.25
2023-02-11T21:38:56.572Z,-4.17
2023-02-11T21:41:24.788Z,-4.13
2023-02-11T21:43:52.161Z,-4.16
2023-02-11T21:46:19.975Z,-4.13
2023-02-11T21:48:47.403Z,-4.15
2023-02-11T21:51:17.829Z,-4.13
2023-02-11T21:53:44.838Z,-4.14
2023-02-11T21:56:17.080Z,-4.18
2023-02-11T21:58:45.127Z,-4.26
2023-02-11T22:01:18.428Z,-4.30
2023-02-11T22:03:46.487Z,-4.30
2023-02-11T22:06:16.680Z,-4.33
2023-02-11T22:08:43.775Z,-4.30
2023-02-11T22:11:12.893Z,-4.33
2023-02-11T22:13:40.397Z,-4.34
2023-02-11T22:16:10.813Z,-4.32
2023-02-11T22:18:38.251Z,-4.35
2023-02-11T22:21:07.801Z,-4.43
2023-02-11T22:23:35.457Z,-4.48
2023-02-11T22:26:10.966Z,-4.48
2023-02-11T22:28:40.558Z,-4.45
2023-02-11T22:31:11.663Z,-4.43
2023-02-11T22:33:38.286Z,-4.46
2023-02-11T22:36:08.599Z,-4.48
2023-02-11T22:38:35.479Z,-4.47
2023-02-11T22:41:07.235Z,-4.48
2023-02-11T22:43:34.051Z,-4.53
2023-02-11T22:46:02.031Z,-4.56
2023-02-11T22:48:29.182Z,-4.55
2023-02-11T22:50:58.521Z,-4.53
2023-02-11T22:53:25.612Z,-4.53
2023-02-11T22:55:52.782Z,-4.54
2023-02-11T22:58:19.558Z,-4.61
2023-02-11T23:00:46.234Z,-4.63
2023-02-11T23:03:13.452Z,-4.56
2023-02-11T23:05:41.840Z,-4.62
2023-02-11T23:08:10.614Z,-4.59
2023-02-11T23:10:38.884Z,-4.62
2023-02-11T23:13:06.744Z,-4.68
2023-02-11T23:15:33.663Z,-4.69
2023-02-11T23:18:00.284Z,-4.68
2023-02-11T23:20:26.916Z,-4.67
2023-02-11T23:22:53.592Z,-4.65
2023-02-11T23:25:20.203Z,-4.66
2023-02-11T23:27:46.944Z,-4.62
2023-02-11T23:30:14.028Z,-4.60
2023-02-11T23:32:40.984Z,-4.59
2023-02-11T23:35:07.856Z,-4.57
2023-02-11T23:37:36.853Z,-4.57
2023-02-11T23:40:03.640Z,-4.57
2023-02-11T23:42:30.286Z,-4.48
2023-02-11T23:44:56.920Z,-4.45
2023-02-11T23:47:23.469Z,-4.53
2023-02-11T23:49:50.103Z,-4.55
2023-02-11T23:52:16.799Z,-4.58
2023-02-11T23:54:44.097Z,-4.56
2023-02-11T23:57:10.713Z,-4.53
2023-02-11T23:59:37.380Z,-4.55
